createdAt,value
2023-03-18T00:00:32.322Z,9.60
2023-03-18T00:01:32.072Z,12.00
2023-03-18T00:02:32.045Z,10.80
2023-03-18T00:03:32.018Z,11.90
2023-03-18T00:04:31.977Z,8.00
2023-03-18T00:05:31.971Z,9.90
2023-03-18T00:06:31.957Z,10.20
2023-03-18T00:07:31.944Z,8.20
2023-03-18T00:08:31.940Z,8.90
2023-03-18T00:09:31.901Z,7.20
2023-03-18T00:10:32.129Z,8.10
2023-03-18T00:11:31.917Z,8.10
2023-03-18T00:12:31.871Z,9.10
2023-03-18T00:13:31.879Z,7.50
2023-03-18T00:14:31.855Z,7.70
2023-03-18T00:15:31.845Z,6.50
2023-03-18T00:16:31.816Z,7.00
2023-03-18T00:17:31.833Z,8.40
2023-03-18T00:18:31.787Z,8.60
2023-03-18T00:19:31.774Z,9.00
2023-03-18T00:20:32.139Z,9.40
2023-03-18T00:21:31.755Z,11.30
2023-03-18T00:22:31.728Z,12.40
2023-03-18T00:23:31.721Z,10.60
2023-03-18T00:24:31.713Z,10.50
2023-03-18T00:25:31.720Z,9.20
2023-03-18T00:26:31.687Z,9.10
2023-03-18T00:27:31.689Z,9.00
2023-03-18T00:28:31.711Z,9.60
2023-03-18T00:29:31.644Z,8.80
2023-03-18T00:30:31.952Z,9.50
2023-03-18T00:31:31.677Z,8.20
2023-03-18T00:32:31.660Z,7.50
2023-03-18T00:33:31.609Z,7.80
2023-03-18T00:34:31.593Z,8.20
2023-03-18T00:35:31.618Z,8.10
2023-03-18T00:36:31.561Z,8.60
2023-03-18T00:37:31.687Z,7.50
2023-03-18T00:38:31.521Z,7.40
2023-03-18T00:39:31.514Z,8.70
2023-03-18T00:40:31.714Z,5.50
2023-03-18T00:41:31.497Z,7.20
2023-03-18T00:42:31.474Z,6.70
2023-03-18T00:43:31.485Z,6.20
2023-03-18T00:44:31.498Z,8.10
2023-03-18T00:45:31.428Z,7.00
2023-03-18T00:46:31.516Z,7.90
2023-03-18T00:47:31.409Z,6.30
2023-03-18T00:48:31.413Z,5.70
2023-03-18T00:49:31.437Z,5.80
2023-03-18T00:50:31.605Z,6.10
2023-03-18T00:51:31.368Z,7.40
2023-03-18T00:52:32.386Z,7.00
2023-03-18T00:53:31.351Z,8.30
2023-03-18T00:54:31.327Z,6.90
2023-03-18T00:55:31.336Z,6.20
2023-03-18T00:56:31.310Z,8.40
2023-03-18T00:57:31.315Z,6.50
2023-03-18T00:58:31.281Z,6.70
2023-03-18T00:59:31.249Z,8.20
2023-03-18T01:00:31.807Z,6.80
2023-03-18T01:01:31.271Z,6.50
2023-03-18T01:02:31.290Z,6.60
2023-03-18T01:03:31.231Z,6.30
2023-03-18T01:04:31.190Z,5.90
2023-03-18T01:05:31.207Z,6.50
2023-03-18T01:06:31.155Z,8.30
2023-03-18T01:07:31.198Z,7.90
2023-03-18T01:08:31.167Z,6.60
2023-03-18T01:09:31.113Z,7.20
2023-03-18T01:10:31.305Z,9.50
2023-03-18T01:11:31.089Z,10.40
2023-03-18T01:12:31.096Z,11.20
2023-03-18T01:13:31.103Z,10.90
2023-03-18T01:14:31.048Z,8.70
2023-03-18T01:15:31.058Z,8.80
2023-03-18T01:16:31.090Z,8.80
2023-03-18T01:17:31.013Z,7.30
2023-03-18T01:18:31.028Z,6.70
2023-03-18T01:19:30.987Z,7.90
2023-03-18T01:20:31.289Z,7.90
2023-03-18T01:21:30.976Z,8.20
2023-03-18T01:22:30.970Z,7.90
2023-03-18T01:23:30.946Z,6.30
2023-03-18T01:24:30.952Z,6.20
2023-03-18T01:25:30.913Z,8.40
2023-03-18T01:26:30.909Z,6.60
2023-03-18T01:27:30.875Z,7.50
2023-03-18T01:28:30.879Z,7.20
2023-03-18T01:29:30.904Z,6.00
2023-03-18T01:30:31.100Z,7.00
2023-03-18T01:31:30.866Z,6.60
2023-03-18T01:32:30.831Z,5.90
2023-03-18T01:33:30.808Z,7.20
2023-03-18T01:34:30.838Z,6.30
2023-03-18T01:35:30.833Z,5.60
2023-03-18T01:36:30.787Z,7.10
2023-03-18T01:37:30.740Z,6.30
2023-03-18T01:38:30.768Z,6.70
2023-03-18T01:39:30.740Z,6.10
2023-03-18T01:40:30.873Z,5.90
2023-03-18T01:41:30.694Z,5.90
2023-03-18T01:42:30.718Z,6.60
2023-03-18T01:43:30.766Z,6.20
2023-03-18T01:44:30.679Z,5.40
2023-03-18T01:45:30.715Z,6.20
2023-03-18T01:46:30.637Z,4.80
2023-03-18T01:47:30.646Z,5.20
2023-03-18T01:48:30.605Z,4.80
2023-03-18T01:49:30.586Z,5.50
2023-03-18T01:50:30.969Z,6.00
2023-03-18T01:51:30.556Z,6.40
2023-03-18T01:52:30.579Z,7.40
2023-03-18T01:53:30.529Z,5.90
2023-03-18T01:54:30.518Z,8.00
2023-03-18T01:55:30.518Z,6.90
2023-03-18T01:56:30.496Z,5.70
2023-03-18T01:57:30.503Z,5.00
2023-03-18T01:58:30.460Z,5.70
2023-03-18T01:59:30.451Z,5.20
2023-03-18T02:00:30.813Z,5.30
2023-03-18T02:01:30.451Z,6.20
2023-03-18T02:02:30.444Z,7.20
2023-03-18T02:03:30.403Z,7.40
2023-03-18T02:04:30.387Z,5.40
2023-03-18T02:05:30.404Z,6.60
2023-03-18T02:06:30.370Z,6.90
2023-03-18T02:07:30.349Z,5.70
2023-03-18T02:08:30.376Z,5.70
2023-03-18T02:09:30.328Z,5.20
2023-03-18T02:10:30.583Z,6.40
2023-03-18T02:11:30.326Z,6.60
2023-03-18T02:12:30.293Z,5.10
2023-03-18T02:13:30.300Z,4.90
2023-03-18T02:14:30.261Z,4.80
2023-03-18T02:15:30.251Z,5.30
2023-03-18T02:16:30.318Z,6.00
2023-03-18T02:17:30.306Z,5.80
2023-03-18T02:18:30.236Z,4.90
2023-03-18T02:19:30.193Z,4.80
2023-03-18T02:20:30.488Z,5.50
2023-03-18T02:21:30.222Z,4.80
2023-03-18T02:22:30.163Z,4.70
2023-03-18T02:23:30.155Z,6.40
2023-03-18T02:24:30.140Z,5.30
2023-03-18T02:25:30.130Z,5.50
2023-03-18T02:26:30.134Z,6.20
2023-03-18T02:27:30.097Z,4.90
2023-03-18T02:28:30.114Z,6.30
2023-03-18T02:29:30.098Z,6.00
2023-03-18T02:30:30.297Z,5.20
2023-03-18T02:31:30.115Z,6.50
2023-03-18T02:32:30.099Z,4.70
2023-03-18T02:33:30.018Z,5.50
2023-03-18T02:34:30.028Z,5.20
2023-03-18T02:35:30.031Z,5.40
2023-03-18T02:36:29.983Z,4.70
2023-03-18T02:37:29.963Z,5.30
2023-03-18T02:38:29.938Z,8.90
2023-03-18T02:39:29.975Z,6.10
2023-03-18T02:40:30.182Z,5.40
2023-03-18T02:41:29.910Z,5.00
2023-03-18T02:42:29.895Z,4.80
2023-03-18T02:43:29.891Z,5.30
2023-03-18T02:44:29.860Z,6.20
2023-03-18T02:45:29.875Z,7.00
2023-03-18T02:46:29.858Z,5.90
2023-03-18T02:47:29.852Z,5.10
2023-03-18T02:48:29.824Z,4.80
2023-03-18T02:49:29.796Z,5.00
2023-03-18T02:50:29.975Z,4.80
2023-03-18T02:51:29.786Z,4.50
2023-03-18T02:52:29.775Z,4.90
2023-03-18T02:53:29.755Z,5.10
2023-03-18T02:54:29.734Z,5.60
2023-03-18T02:55:29.755Z,4.50
2023-03-18T02:56:29.717Z,6.30
2023-03-18T02:57:29.710Z,5.10
2023-03-18T02:58:29.683Z,4.60
2023-03-18T02:59:29.671Z,5.30
2023-03-18T03:00:29.851Z,5.40
2023-03-18T03:01:29.691Z,4.70
2023-03-18T03:02:29.756Z,7.10
2023-03-18T03:03:29.717Z,4.90
2023-03-18T03:04:29.612Z,4.90
2023-03-18T03:05:29.614Z,4.90
2023-03-18T03:06:29.574Z,4.70
2023-03-18T03:07:29.572Z,4.80
2023-03-18T03:08:29.543Z,4.80
2023-03-18T03:09:29.541Z,5.10
2023-03-18T03:10:29.780Z,4.60
2023-03-18T03:11:29.502Z,6.80
2023-03-18T03:12:29.510Z,4.80
2023-03-18T03:13:29.476Z,4.60
2023-03-18T03:14:29.467Z,4.70
2023-03-18T03:15:29.496Z,4.60
2023-03-18T03:16:29.483Z,4.60
2023-03-18T03:17:29.434Z,5.10
2023-03-18T03:18:29.424Z,6.50
2023-03-18T03:19:29.395Z,5.00
2023-03-18T03:20:29.537Z,5.00
2023-03-18T03:21:29.405Z,4.90
2023-03-18T03:22:29.364Z,5.00
2023-03-18T03:23:29.368Z,4.70
2023-03-18T03:24:29.343Z,5.40
2023-03-18T03:25:29.321Z,5.00
2023-03-18T03:26:29.338Z,6.80
2023-03-18T03:27:29.314Z,4.40
2023-03-18T03:28:29.287Z,5.20
2023-03-18T03:29:29.344Z,6.00
2023-03-18T03:30:29.421Z,4.70
2023-03-18T03:31:29.293Z,5.20
2023-03-18T03:32:29.290Z,4.90
2023-03-18T03:33:29.210Z,4.70
2023-03-18T03:34:29.232Z,5.00
2023-03-18T03:35:29.206Z,4.60
2023-03-18T03:36:29.201Z,4.80
2023-03-18T03:37:29.192Z,4.80
2023-03-18T03:38:29.187Z,5.10
2023-03-18T03:39:29.179Z,4.90
2023-03-18T03:40:29.267Z,5.50
2023-03-18T03:41:29.116Z,6.10
2023-03-18T03:42:29.106Z,4.90
2023-03-18T03:43:29.094Z,5.20
2023-03-18T03:44:29.103Z,5.00
2023-03-18T03:45:29.089Z,4.50
2023-03-18T03:46:29.104Z,5.70
2023-03-18T03:47:29.050Z,5.00
2023-03-18T03:48:29.022Z,5.10
2023-03-18T03:49:29.016Z,6.80
2023-03-18T03:50:29.283Z,5.20
2023-03-18T03:51:29.005Z,5.90
2023-03-18T03:52:28.994Z,4.70
2023-03-18T03:53:28.996Z,5.20
2023-03-18T03:54:28.953Z,6.20
2023-03-18T03:55:28.951Z,5.20
2023-03-18T03:56:28.951Z,5.10
2023-03-18T03:57:28.912Z,5.30
2023-03-18T03:58:28.908Z,5.50
2023-03-18T03:59:28.880Z,6.80
2023-03-18T04:00:29.081Z,5.70
2023-03-18T04:01:28.882Z,5.00
2023-03-18T04:02:28.921Z,4.70
2023-03-18T04:03:28.821Z,4.80
2023-03-18T04:04:28.868Z,5.10
2023-03-18T04:05:28.831Z,7.10
2023-03-18T04:06:28.807Z,4.90
2023-03-18T04:07:28.774Z,4.40
2023-03-18T04:08:28.791Z,4.90
2023-03-18T04:09:28.756Z,5.60
2023-03-18T04:10:28.724Z,5.60
2023-03-18T04:11:59.218Z,5.30
2023-03-18T04:12:28.712Z,5.40
2023-03-18T04:13:28.729Z,4.60
2023-03-18T04:14:28.694Z,5.30
2023-03-18T04:15:28.678Z,5.00
2023-03-18T04:16:28.776Z,4.90
2023-03-18T04:17:28.688Z,5.80
2023-03-18T04:18:28.642Z,4.90
2023-03-18T04:19:28.616Z,5.10
2023-03-18T04:20:28.605Z,5.20
2023-03-18T04:21:28.603Z,4.90
2023-03-18T04:22:28.608Z,5.00
2023-03-18T04:23:28.567Z,4.40
2023-03-18T04:24:28.552Z,5.30
2023-03-18T04:25:28.533Z,6.10
2023-03-18T04:26:28.529Z,6.90
2023-03-18T04:27:28.541Z,5.20
2023-03-18T04:28:28.489Z,5.00
2023-03-18T04:29:28.479Z,4.80
2023-03-18T04:30:28.463Z,5.90
2023-03-18T04:31:28.581Z,4.90
2023-03-18T04:32:28.503Z,7.00
2023-03-18T04:33:28.425Z,5.10
2023-03-18T04:34:28.416Z,7.00
2023-03-18T04:35:28.425Z,6.70
2023-03-18T04:36:28.397Z,4.90
2023-03-18T04:37:28.415Z,4.90
2023-03-18T04:38:28.401Z,6.20
2023-03-18T04:39:28.385Z,4.60
2023-03-18T04:40:28.341Z,5.20
2023-03-18T04:41:28.327Z,4.90
2023-03-18T04:42:28.328Z,4.80
2023-03-18T04:43:28.320Z,7.40
2023-03-18T04:44:28.305Z,5.00
2023-03-18T04:45:28.277Z,4.80
2023-03-18T04:46:28.362Z,7.10
2023-03-18T04:47:28.268Z,5.80
2023-03-18T04:48:28.259Z,5.30
2023-03-18T04:49:28.225Z,6.20
2023-03-18T04:50:28.206Z,5.40
2023-03-18T04:51:28.222Z,5.30
2023-03-18T04:52:28.175Z,7.20
2023-03-18T04:53:28.163Z,7.20
2023-03-18T04:54:28.152Z,9.00
2023-03-18T04:55:28.135Z,11.30
2023-03-18T04:56:28.147Z,9.20
2023-03-18T04:57:28.136Z,6.40
2023-03-18T04:58:28.129Z,6.60
2023-03-18T04:59:28.076Z,7.40
2023-03-18T05:00:28.082Z,7.10
2023-03-18T05:01:28.060Z,5.20
2023-03-18T05:02:28.059Z,7.40
2023-03-18T05:03:28.208Z,8.20
2023-03-18T05:04:28.011Z,8.20
2023-03-18T05:05:28.037Z,9.90
2023-03-18T05:06:27.994Z,6.90
2023-03-18T05:07:28.005Z,5.40
2023-03-18T05:08:28.004Z,5.20
2023-03-18T05:09:27.952Z,5.60
2023-03-18T05:10:27.939Z,6.70
2023-03-18T05:11:27.962Z,6.10
2023-03-18T05:12:27.914Z,5.80
2023-03-18T05:13:27.907Z,5.10
2023-03-18T05:14:27.913Z,5.10
2023-03-18T05:15:27.871Z,5.40
2023-03-18T05:16:27.914Z,6.10
2023-03-18T05:17:27.854Z,6.80
2023-03-18T05:18:27.825Z,6.80
2023-03-18T05:19:27.850Z,5.10
2023-03-18T05:20:27.803Z,6.40
2023-03-18T05:21:30.373Z,6.30
2023-03-18T05:22:27.788Z,8.50
2023-03-18T05:23:27.774Z,6.80
2023-03-18T05:24:27.780Z,6.00
2023-03-18T05:25:27.730Z,6.80
2023-03-18T05:26:27.757Z,6.50
2023-03-18T05:27:27.791Z,7.40
2023-03-18T05:28:27.771Z,7.40
2023-03-18T05:29:27.699Z,7.60
2023-03-18T05:30:27.674Z,6.40
2023-03-18T05:31:27.738Z,6.60
2023-03-18T05:32:27.655Z,6.10
2023-03-18T05:33:27.632Z,6.20
2023-03-18T05:34:27.652Z,5.30
2023-03-18T05:35:27.626Z,9.40
2023-03-18T05:36:27.653Z,5.40
2023-03-18T05:37:27.590Z,5.80
2023-03-18T05:38:27.577Z,6.80
2023-03-18T05:39:27.584Z,6.30
2023-03-18T05:40:27.543Z,7.10
2023-03-18T05:41:27.525Z,7.90
2023-03-18T05:42:27.553Z,6.70
2023-03-18T05:43:27.499Z,6.20
2023-03-18T05:44:27.519Z,7.60
2023-03-18T05:45:27.494Z,7.40
2023-03-18T05:46:27.561Z,9.20
2023-03-18T05:47:27.464Z,9.60
2023-03-18T05:48:27.441Z,7.40
2023-03-18T05:49:27.458Z,9.10
2023-03-18T05:50:27.411Z,10.40
2023-03-18T05:51:27.400Z,28.40
2023-03-18T05:52:27.401Z,13.50
2023-03-18T05:53:27.374Z,8.30
2023-03-18T05:54:27.386Z,9.20
2023-03-18T05:55:27.391Z,7.40
2023-03-18T05:56:27.328Z,7.50
2023-03-18T05:57:27.328Z,8.40
2023-03-18T05:58:27.312Z,6.30
2023-03-18T05:59:27.313Z,6.60
2023-03-18T06:00:27.328Z,7.50
2023-03-18T06:01:27.280Z,7.60
2023-03-18T06:02:27.307Z,5.50
2023-03-18T06:03:27.281Z,6.80
2023-03-18T06:04:27.251Z,5.60
2023-03-18T06:05:27.248Z,42.30
2023-03-18T06:06:27.196Z,27.10
2023-03-18T06:07:27.197Z,27.30
2023-03-18T06:08:27.173Z,37.40
2023-03-18T06:09:27.151Z,35.90
2023-03-18T06:10:27.152Z,31.00
2023-03-18T06:11:27.140Z,32.50
2023-03-18T06:12:27.147Z,30.70
2023-03-18T06:13:27.107Z,13.00
2023-03-18T06:14:27.151Z,18.80
2023-03-18T06:15:27.123Z,9.60
2023-03-18T06:16:27.123Z,18.80
2023-03-18T06:17:27.081Z,12.20
2023-03-18T06:18:27.047Z,16.60
2023-03-18T06:19:27.021Z,13.00
2023-03-18T06:20:27.026Z,15.90
2023-03-18T06:21:27.034Z,14.90
2023-03-18T06:22:27.020Z,9.90
2023-03-18T06:23:26.987Z,11.80
2023-03-18T06:24:26.963Z,9.00
2023-03-18T06:25:26.957Z,9.90
2023-03-18T06:26:26.974Z,9.70
2023-03-18T06:27:26.940Z,8.40
2023-03-18T06:28:26.916Z,9.00
2023-03-18T06:29:26.916Z,9.30
2023-03-18T06:30:26.905Z,15.00
2023-03-18T06:31:26.932Z,17.00
2023-03-18T06:32:26.862Z,22.00
2023-03-18T06:33:26.868Z,17.40
2023-03-18T06:34:26.843Z,17.20
2023-03-18T06:35:26.845Z,15.00
2023-03-18T06:36:26.810Z,11.20
2023-03-18T06:37:26.812Z,10.20
2023-03-18T06:38:26.787Z,12.90
2023-03-18T06:39:26.768Z,12.60
2023-03-18T06:40:26.802Z,13.20
2023-03-18T06:41:26.766Z,13.80
2023-03-18T06:42:26.733Z,14.20
2023-03-18T06:43:26.728Z,17.50
2023-03-18T06:44:26.697Z,16.30
2023-03-18T06:45:26.683Z,15.50
2023-03-18T06:46:26.769Z,15.60
2023-03-18T06:47:26.664Z,16.40
2023-03-18T06:48:26.645Z,15.70
2023-03-18T06:49:26.661Z,15.60
2023-03-18T06:50:26.622Z,18.40
2023-03-18T06:51:26.625Z,19.90
2023-03-18T06:52:26.599Z,23.20
2023-03-18T06:53:26.590Z,22.00
2023-03-18T06:54:26.603Z,18.20
2023-03-18T06:55:26.555Z,16.30
2023-03-18T06:56:26.546Z,11.50
2023-03-18T06:57:26.556Z,14.10
2023-03-18T06:58:26.517Z,10.50
2023-03-18T06:59:26.508Z,8.90
2023-03-18T07:00:26.538Z,7.50
2023-03-18T07:01:26.548Z,9.50
2023-03-18T07:02:26.489Z,8.40
2023-03-18T07:03:26.474Z,8.90
2023-03-18T07:04:26.508Z,9.30
2023-03-18T07:05:26.478Z,6.50
2023-03-18T07:06:26.417Z,9.40
2023-03-18T07:07:26.438Z,8.30
2023-03-18T07:08:26.402Z,10.90
2023-03-18T07:09:26.378Z,9.80
2023-03-18T07:10:26.357Z,8.70
2023-03-18T07:11:26.375Z,10.80
2023-03-18T07:12:26.326Z,10.40
2023-03-18T07:13:26.321Z,9.90
2023-03-18T07:14:26.312Z,9.20
2023-03-18T07:15:26.355Z,9.30
2023-03-18T07:16:26.355Z,7.60
2023-03-18T07:17:26.269Z,8.00
2023-03-18T07:18:26.271Z,5.60
2023-03-18T07:19:26.247Z,7.20
2023-03-18T07:20:26.217Z,6.60
2023-03-18T07:21:26.206Z,7.90
2023-03-18T07:22:26.197Z,5.40
2023-03-18T07:23:26.222Z,6.20
2023-03-18T07:24:26.180Z,6.50
2023-03-18T07:25:26.173Z,6.90
2023-03-18T07:26:26.167Z,6.60
2023-03-18T07:27:26.133Z,6.60
2023-03-18T07:28:26.148Z,7.80
2023-03-18T07:29:26.103Z,7.00
2023-03-18T07:30:26.111Z,6.70
2023-03-18T07:31:26.116Z,7.80
2023-03-18T07:32:26.112Z,7.80
2023-03-18T07:33:26.067Z,8.00
2023-03-18T07:34:26.046Z,20.60
2023-03-18T07:35:26.040Z,15.40
2023-03-18T07:36:26.012Z,8.20
2023-03-18T07:37:26.000Z,6.90
2023-03-18T07:38:26.017Z,8.80
2023-03-18T07:39:25.995Z,8.60
2023-03-18T07:40:25.962Z,7.30
2023-03-18T07:41:26.041Z,7.40
2023-03-18T07:42:25.923Z,5.90
2023-03-18T07:43:25.923Z,8.70
2023-03-18T07:44:25.932Z,10.40
2023-03-18T07:45:25.919Z,9.60
2023-03-18T07:46:25.955Z,9.50
2023-03-18T07:47:25.901Z,10.80
2023-03-18T07:48:25.851Z,14.90
2023-03-18T07:49:25.825Z,7.90
2023-03-18T07:50:25.841Z,9.90
2023-03-18T07:51:25.804Z,7.80
2023-03-18T07:52:25.801Z,7.00
2023-03-18T07:53:25.764Z,6.60
2023-03-18T07:54:25.796Z,6.50
2023-03-18T07:55:25.772Z,7.40
2023-03-18T07:56:25.736Z,10.40
2023-03-18T07:57:25.796Z,13.70
2023-03-18T07:58:25.741Z,15.90
2023-03-18T07:59:25.694Z,11.50
2023-03-18T08:00:25.732Z,12.50
2023-03-18T08:01:25.706Z,10.20
2023-03-18T08:02:25.673Z,13.50
2023-03-18T08:03:25.671Z,15.70
2023-03-18T08:04:25.760Z,15.00
2023-03-18T08:05:25.625Z,38.10
2023-03-18T08:06:25.637Z,33.20
2023-03-18T08:07:25.609Z,36.00
2023-03-18T08:08:25.573Z,38.90
2023-03-18T08:09:25.573Z,32.00
2023-03-18T08:10:25.569Z,23.90
2023-03-18T08:11:25.565Z,12.90
2023-03-18T08:12:25.554Z,13.80
2023-03-18T08:13:25.546Z,9.00
2023-03-18T08:14:25.491Z,6.90
2023-03-18T08:15:25.476Z,8.00
2023-03-18T08:16:25.603Z,9.50
2023-03-18T08:17:25.793Z,9.30
2023-03-18T08:18:25.442Z,11.70
2023-03-18T08:19:25.451Z,10.20
2023-03-18T08:20:25.422Z,7.50
2023-03-18T08:21:25.444Z,8.80
2023-03-18T08:22:25.401Z,8.40
2023-03-18T08:23:25.364Z,7.40
2023-03-18T08:24:25.373Z,7.20
2023-03-18T08:25:25.408Z,6.30
2023-03-18T08:26:25.351Z,7.40
2023-03-18T08:27:25.352Z,4.90
2023-03-18T08:28:25.327Z,5.40
2023-03-18T08:29:25.303Z,6.30
2023-03-18T08:30:25.328Z,4.70
2023-03-18T08:31:25.288Z,6.80
2023-03-18T08:32:25.262Z,12.10
2023-03-18T08:33:25.276Z,15.90
2023-03-18T08:34:25.250Z,14.10
2023-03-18T08:35:25.250Z,6.40
2023-03-18T08:36:25.211Z,7.20
2023-03-18T08:37:25.452Z,5.90
2023-03-18T08:38:25.212Z,6.10
2023-03-18T08:39:25.171Z,5.10
2023-03-18T08:40:25.174Z,5.30
2023-03-18T08:41:25.148Z,4.00
2023-03-18T08:42:25.135Z,4.80
2023-03-18T08:43:25.138Z,5.50
2023-03-18T08:44:25.086Z,19.60
2023-03-18T08:45:25.118Z,33.20
2023-03-18T08:46:25.094Z,29.80
2023-03-18T08:47:25.051Z,16.20
2023-03-18T08:48:25.048Z,13.80
2023-03-18T08:49:25.057Z,20.40
2023-03-18T08:50:25.041Z,24.90
2023-03-18T08:51:25.003Z,29.20
2023-03-18T08:52:25.013Z,23.30
2023-03-18T08:53:25.021Z,6.70
2023-03-18T08:54:24.971Z,12.00
2023-03-18T08:55:24.990Z,6.80
2023-03-18T08:56:24.990Z,3.50
2023-03-18T08:57:24.933Z,3.00
2023-03-18T08:59:52.274Z,4.00
2023-03-18T08:59:57.164Z,4.90
2023-03-18T09:00:57.319Z,3.40
2023-03-18T09:01:57.141Z,5.30
2023-03-18T09:02:57.128Z,3.40
2023-03-18T09:03:57.119Z,5.30
2023-03-18T09:04:57.131Z,13.80
2023-03-18T09:05:57.121Z,15.60
2023-03-18T09:06:57.073Z,6.30
2023-03-18T09:07:57.085Z,5.10
2023-03-18T09:08:57.041Z,18.70
2023-03-18T09:09:57.038Z,10.30
2023-03-18T09:10:57.014Z,15.40
2023-03-18T09:11:57.035Z,15.50
2023-03-18T09:12:56.985Z,14.00
2023-03-18T09:13:57.015Z,7.60
2023-03-18T09:14:56.971Z,12.30
2023-03-18T09:15:56.945Z,14.40
2023-03-18T09:16:57.067Z,5.40
2023-03-18T09:18:10.295Z,4.90
2023-03-18T09:18:56.926Z,3.80
2023-03-18T09:19:56.906Z,3.60
2023-03-18T09:20:56.896Z,4.00
2023-03-18T09:21:56.864Z,4.10
2023-03-18T09:22:56.880Z,5.70
2023-03-18T09:23:56.850Z,4.20
2023-03-18T09:24:56.823Z,3.30
2023-03-18T09:25:56.843Z,7.60
2023-03-18T09:26:56.827Z,7.80
2023-03-18T09:27:56.788Z,6.40
2023-03-18T09:28:56.809Z,9.10
2023-03-18T09:29:56.774Z,7.60
2023-03-18T09:30:56.798Z,5.90
2023-03-18T09:31:56.763Z,3.80
2023-03-18T09:32:59.669Z,13.60
2023-03-18T09:33:56.746Z,13.10
2023-03-18T09:34:56.700Z,6.90
2023-03-18T09:35:56.686Z,3.70
2023-03-18T09:36:56.701Z,6.00
2023-03-18T09:37:56.643Z,4.20
2023-03-18T09:38:56.646Z,3.00
2023-03-18T09:39:56.632Z,6.10
2023-03-18T09:40:56.615Z,6.10
2023-03-18T09:41:56.625Z,7.50
2023-03-18T09:42:56.643Z,7.30
2023-03-18T09:43:56.611Z,5.30
2023-03-18T09:44:56.571Z,6.50
2023-03-18T09:45:57.422Z,9.00
2023-03-18T09:46:56.818Z,7.00
2023-03-18T09:47:56.535Z,6.50
2023-03-18T09:48:56.531Z,5.70
2023-03-18T09:49:56.493Z,16.00
2023-03-18T09:50:56.474Z,12.40
2023-03-18T09:51:56.493Z,8.40
2023-03-18T09:52:56.799Z,3.70
2023-03-18T09:53:56.439Z,3.20
2023-03-18T09:54:56.440Z,4.60
2023-03-18T09:55:56.411Z,4.50
2023-03-18T09:56:56.414Z,4.20
2023-03-18T09:57:56.406Z,3.40
2023-03-18T09:58:56.364Z,2.80
2023-03-18T09:59:56.353Z,2.70
2023-03-18T10:00:56.403Z,3.70
2023-03-18T10:01:56.399Z,2.70
2023-03-18T10:02:56.326Z,2.80
2023-03-18T10:03:56.415Z,3.50
2023-03-18T10:04:56.309Z,4.50
2023-03-18T10:05:56.276Z,4.10
2023-03-18T10:06:56.263Z,4.50
2023-03-18T10:07:56.267Z,3.10
2023-03-18T10:08:56.248Z,7.70
2023-03-18T10:09:56.238Z,3.80
2023-03-18T10:10:56.221Z,4.50
2023-03-18T10:11:56.191Z,4.60
2023-03-18T10:12:56.173Z,14.00
2023-03-18T10:13:56.202Z,9.80
2023-03-18T10:14:56.167Z,5.30
2023-03-18T10:15:56.172Z,4.90
2023-03-18T10:16:56.140Z,17.50
2023-03-18T10:17:56.128Z,7.40
2023-03-18T10:18:56.168Z,11.90
2023-03-18T10:19:56.126Z,13.90
2023-03-18T10:20:56.061Z,12.80
2023-03-18T10:21:56.047Z,6.00
2023-03-18T10:22:56.053Z,4.00
2023-03-18T10:23:56.088Z,4.30
2023-03-18T10:24:56.019Z,4.50
2023-03-18T10:25:56.010Z,2.60
2023-03-18T10:26:56.024Z,4.10
2023-03-18T10:27:55.976Z,7.10
2023-03-18T10:28:55.995Z,4.10
2023-03-18T10:29:55.974Z,5.40
2023-03-18T10:30:55.961Z,4.60
2023-03-18T10:31:55.936Z,3.50
2023-03-18T10:32:56.071Z,4.10
2023-03-18T10:33:55.942Z,4.00
2023-03-18T10:34:55.906Z,4.90
2023-03-18T10:35:57.675Z,4.40
2023-03-18T10:36:55.877Z,10.30
2023-03-18T10:37:55.858Z,4.10
2023-03-18T10:38:55.867Z,4.10
2023-03-18T10:39:55.844Z,4.00
2023-03-18T10:40:55.816Z,10.30
2023-03-18T10:41:55.793Z,3.20
2023-03-18T10:42:55.781Z,2.60
2023-03-18T10:43:55.788Z,5.30
2023-03-18T10:44:55.758Z,16.30
2023-03-18T10:45:55.812Z,7.70
2023-03-18T10:46:55.872Z,4.20
2023-03-18T10:47:55.722Z,5.90
2023-03-18T10:48:55.716Z,2.90
2023-03-18T10:49:55.717Z,6.00
2023-03-18T10:50:55.678Z,6.60
2023-03-18T10:51:55.699Z,5.50
2023-03-18T10:52:55.685Z,4.60
2023-03-18T10:53:55.642Z,4.90
2023-03-18T10:54:55.663Z,4.30
2023-03-18T10:55:57.499Z,7.00
2023-03-18T10:56:55.592Z,4.10
2023-03-18T10:57:55.621Z,4.00
2023-03-18T10:58:55.565Z,4.40
2023-03-18T10:59:55.662Z,4.30
2023-03-18T11:00:55.543Z,5.10
2023-03-18T11:01:55.605Z,8.40
2023-03-18T11:02:55.621Z,5.80
2023-03-18T11:03:55.510Z,3.50
2023-03-18T11:04:55.488Z,8.80
2023-03-18T11:05:55.505Z,8.40
2023-03-18T11:06:55.528Z,3.90
2023-03-18T11:07:55.444Z,7.20
2023-03-18T11:08:55.447Z,6.10
2023-03-18T11:09:55.428Z,5.30
2023-03-18T11:10:55.427Z,5.70
2023-03-18T11:11:55.418Z,4.80
2023-03-18T11:12:55.390Z,5.90
2023-03-18T11:13:55.372Z,6.20
2023-03-18T11:14:55.360Z,4.70
2023-03-18T11:15:55.411Z,6.00
2023-03-18T11:16:55.366Z,5.40
2023-03-18T11:17:55.316Z,6.30
2023-03-18T11:18:55.316Z,5.30
2023-03-18T11:19:55.319Z,5.40
2023-03-18T11:20:55.276Z,5.70
2023-03-18T11:21:55.253Z,3.70
2023-03-18T11:22:55.246Z,4.40
2023-03-18T11:23:55.236Z,3.40
2023-03-18T11:24:55.254Z,5.80
2023-03-18T11:25:55.197Z,6.90
2023-03-18T11:26:55.200Z,7.50
2023-03-18T11:27:55.203Z,4.40
2023-03-18T11:28:55.190Z,3.90
2023-03-18T11:29:55.214Z,3.50
2023-03-18T11:30:55.253Z,4.90
2023-03-18T11:31:55.133Z,7.90
2023-03-18T11:32:55.172Z,4.30
2023-03-18T11:33:55.117Z,6.00
2023-03-18T11:34:55.111Z,4.70
2023-03-18T11:35:55.178Z,3.20
2023-03-18T11:36:55.065Z,4.30
2023-03-18T11:37:55.041Z,5.10
2023-03-18T11:38:55.038Z,3.40
2023-03-18T11:39:59.125Z,5.10
2023-03-18T11:40:55.022Z,7.00
2023-03-18T11:41:54.991Z,4.90
2023-03-18T11:42:54.992Z,6.40
2023-03-18T11:43:54.965Z,4.10
2023-03-18T11:44:54.949Z,4.90
2023-03-18T11:45:54.973Z,4.40
2023-03-18T11:46:55.034Z,3.30
2023-03-18T11:47:54.917Z,3.60
2023-03-18T11:48:54.979Z,3.90
2023-03-18T11:49:54.895Z,4.60
2023-03-18T11:50:54.884Z,3.80
2023-03-18T11:51:54.863Z,4.70
2023-03-18T11:52:54.857Z,4.30
2023-03-18T11:53:54.861Z,3.20
2023-03-18T11:54:54.827Z,4.40
2023-03-18T11:55:54.817Z,4.30
2023-03-18T11:56:54.816Z,7.20
2023-03-18T11:57:54.859Z,3.80
2023-03-18T11:58:54.794Z,5.40
2023-03-18T11:59:54.807Z,3.80
2023-03-18T12:00:54.735Z,4.90
2023-03-18T12:01:54.848Z,4.50
2023-03-18T12:02:54.727Z,3.90
2023-03-18T12:03:54.738Z,3.30
2023-03-18T12:04:54.758Z,4.50
2023-03-18T12:05:54.693Z,3.90
2023-03-18T12:06:54.853Z,3.30
2023-03-18T12:07:54.656Z,3.50
2023-03-18T12:08:54.661Z,3.40
2023-03-18T12:09:54.628Z,3.90
2023-03-18T12:10:54.629Z,5.50
2023-03-18T12:11:54.598Z,4.00
2023-03-18T12:12:54.640Z,4.90
2023-03-18T12:13:54.598Z,4.90
2023-03-18T12:14:54.558Z,3.50
2023-03-18T12:15:54.571Z,5.30
2023-03-18T12:16:54.579Z,5.80
2023-03-18T12:17:54.577Z,2.80
2023-03-18T12:18:54.511Z,3.50
2023-03-18T12:19:54.502Z,4.50
2023-03-18T12:20:54.482Z,4.30
2023-03-18T12:21:54.477Z,4.10
2023-03-18T12:22:54.505Z,3.90
2023-03-18T12:23:54.461Z,4.30
2023-03-18T12:24:54.437Z,5.10
2023-03-18T12:25:54.426Z,4.90
2023-03-18T12:26:54.420Z,7.20
2023-03-18T12:27:54.431Z,4.40
2023-03-18T12:28:54.397Z,5.10
2023-03-18T12:29:54.381Z,4.90
2023-03-18T12:30:54.379Z,4.80
2023-03-18T12:31:54.501Z,5.70
2023-03-18T12:32:54.375Z,9.10
2023-03-18T12:33:54.340Z,4.60
2023-03-18T12:34:54.311Z,4.80
2023-03-18T12:35:54.370Z,4.10
2023-03-18T12:36:54.333Z,3.30
2023-03-18T12:37:54.292Z,4.00
2023-03-18T12:38:54.253Z,4.50
2023-03-18T12:39:54.260Z,3.50
2023-03-18T12:40:54.226Z,4.30
2023-03-18T12:41:54.221Z,5.80
2023-03-18T12:42:54.206Z,3.80
2023-03-18T12:43:54.193Z,4.70
2023-03-18T12:44:54.214Z,3.70
2023-03-18T12:45:54.249Z,3.90
2023-03-18T12:46:54.147Z,4.30
2023-03-18T12:47:54.133Z,4.00
2023-03-18T12:48:54.140Z,4.40
2023-03-18T12:49:54.142Z,4.20
2023-03-18T12:50:54.095Z,4.20
2023-03-18T12:51:54.082Z,3.70
2023-03-18T12:52:54.076Z,3.90
2023-03-18T12:53:54.233Z,2.80
2023-03-18T12:54:54.045Z,4.20
2023-03-18T12:55:54.039Z,4.30
2023-03-18T12:56:54.011Z,3.70
2023-03-18T12:57:54.010Z,5.00
2023-03-18T12:58:54.031Z,5.00
2023-03-18T12:59:53.977Z,4.80
2023-03-18T13:00:54.170Z,4.70
2023-03-18T13:01:54.024Z,4.20
2023-03-18T13:02:54.002Z,4.50
2023-03-18T13:03:53.936Z,4.80
2023-03-18T13:04:55.395Z,5.20
2023-03-18T13:05:53.908Z,4.70
2023-03-18T13:06:53.899Z,5.60
2023-03-18T13:07:53.899Z,4.40
2023-03-18T13:08:53.866Z,5.40
2023-03-18T13:09:53.860Z,5.80
2023-03-18T13:10:53.879Z,4.30
2023-03-18T13:11:53.827Z,4.40
2023-03-18T13:12:53.803Z,5.20
2023-03-18T13:13:53.820Z,4.80
2023-03-18T13:14:53.795Z,6.60